ROMMA est une association bénévole à but non lucratif. Votre soutien est indispensable : ADHERER à ROMMA ou FAIRE un DON

Val-d'Arly - (73, Savoie)

Beaufortain (2050 m)   Longitude: 06° 35' 21" E   Latitude: 45° 46' 53" N Station romma n°118
 

Détail journalier du     <<     >>

Température Humidité Vent Dir Rafale Dir. rafale Ensol.
Heure (°C) (%) (km/h) (km/h) (min)
01:00 2.8809---16---0
02:00 2.3826---15---0
03:00 3.07810---16---0
04:00 3.2785---10---0
05:00
06:00
07:00
08:00 3.3785---15---0
09:00 3.9765---16---30
10:00 4.37415---24---50
11:00 4.27417---32---10
12:00 5.17218---29---40
13:00 5.66918---31---40
14:00 4.4788---16---30
15:00 4.7769---23---50
16:00 4.27913---23---0
17:00 4.1766---15---0
18:00 3.5747---15---0
19:00 2.9808---18---0
20:00 3.27410---16---0
21:00 3.17712---19---0
22:00 3.27714---23---0
23:00 3.27711---19---0
minuit 2.4799---16---0

Graphique du 25-11-2019

 

Serveur OMMA